Time;durP1;ratioP1;P1;durP2;ratioP2;P2;SDS_P1;SDS_P2;PMS_P1;PMS_P2;Temp;Humidity;BMP_temperature;BMP_pressure;BME280_temperature;BME280_humidity;BME280_pressure;Samples;Min_cycle;Max_cycle;Signal;HPM_P1;HPM_P2
2022/09/27 00:01:00;;;;;;;14.00;8.32;;;;;;;17.14;81.55;99483.97;5009166;28;20045;-74
2022/09/27 00:03:26;;;;;;;14.80;9.30;;;;;;;17.85;82.00;99598.56;5017822;28;20133;-73
2022/09/27 00:06:07;;;;;;;20.65;11.07;;;;;;;17.14;82.90;99489.28;5007329;28;20554;-74
2022/09/27 00:08:34;;;;;;;17.52;10.57;;;;;;;17.75;84.49;99599.88;4988722;28;20058;-75
2022/09/27 00:11:16;;;;;;;12.63;9.65;;;;;;;16.98;85.06;99472.28;5013712;28;20046;-74
2022/09/27 00:13:42;;;;;;;16.70;9.13;;;;;;;17.49;85.14;99558.53;4996696;28;20052;-73
2022/09/27 00:16:09;;;;;;;12.75;10.00;;;;;;;17.33;86.88;99526.47;5017163;28;20034;-74
2022/09/27 00:18:34;;;;;;;16.73;10.93;;;;;;;17.47;89.14;99574.50;5017115;28;20488;-75
2022/09/27 00:21:05;;;;;;;13.27;10.45;;;;;;;16.61;89.73;99448.09;5028650;28;20049;-75
2022/09/27 00:23:31;;;;;;;12.60;8.82;;;;;;;17.43;89.57;99580.84;5027089;28;20048;-73
2022/09/27 00:25:58;;;;;;;14.63;8.63;;;;;;;16.56;90.86;99444.78;5017445;28;20049;-74
2022/09/27 00:28:24;;;;;;;17.30;10.07;;;;;;;17.29;92.06;99586.72;5028198;28;20092;-74
2022/09/27 00:30:50;;;;;;;12.93;10.50;;;;;;;16.37;94.20;99452.59;5026323;28;20848;-75
2022/09/27 00:33:15;;;;;;;18.20;10.10;;;;;;;16.55;92.92;99482.78;5031778;28;20061;-74
2022/09/27 00:35:41;;;;;;;14.63;10.45;;;;;;;17.16;93.82;99577.56;5025571;28;20044;-74
2022/09/27 00:38:06;;;;;;;15.18;9.77;;;;;;;17.14;94.89;99581.16;5023963;28;20048;-74
2022/09/27 00:40:32;;;;;;;11.30;8.45;;;;;;;16.17;95.38;99429.53;5029317;28;20127;-74
2022/09/27 00:42:58;;;;;;;11.43;9.80;;;;;;;16.14;97.65;99439.41;5020539;28;20045;-74
2022/09/27 00:45:24;;;;;;;12.82;11.50;;;;;;;16.40;99.58;99499.28;5028843;28;20046;-74
2022/09/27 00:47:57;;;;;;;10.82;9.57;;;;;;;16.80;100.00;99572.78;5009082;28;20569;-76
2022/09/27 00:50:32;;;;;;;14.40;10.10;;;;;;;16.86;99.91;99587.59;5033217;28;20095;-75
2022/09/27 00:53:13;;;;;;;12.02;10.27;;;;;;;16.86;100.00;99571.69;5035181;28;20047;-75
2022/09/27 00:55:43;;;;;;;12.00;10.48;;;;;;;16.70;100.00;99557.28;5029446;28;20061;-75
2022/09/27 00:58:14;;;;;;;16.88;10.77;;;;;;;15.92;99.97;99410.22;5027681;28;20036;-75
2022/09/27 01:00:44;;;;;;;16.20;11.30;;;;;;;16.53;100.00;99520.84;5020997;28;20038;-75
2022/09/27 01:03:19;;;;;;;11.48;9.60;;;;;;;15.90;100.00;99409.44;5021996;28;20045;-74
2022/09/27 01:05:45;;;;;;;11.82;10.02;;;;;;;15.87;100.00;99401.59;5012489;28;20054;-75
2022/09/27 01:08:10;;;;;;;15.65;10.88;;;;;;;16.41;100.00;99507.16;5021207;28;20045;-74
2022/09/27 01:10:46;;;;;;;12.55;10.20;;;;;;;16.58;100.00;99548.03;5018333;28;20033;-74
2022/09/27 01:13:33;;;;;;;19.83;10.80;;;;;;;15.77;100.00;99399.31;5026593;28;20092;-74
2022/09/27 01:16:37;;;;;;;13.57;10.95;;;;;;;16.60;100.00;99530.25;5026098;28;20061;-74
2022/09/27 01:19:21;;;;;;;11.93;10.27;;;;;;;16.56;100.00;99534.84;5024792;28;20061;-75
2022/09/27 01:21:58;;;;;;;11.43;9.50;;;;;;;16.54;100.00;99528.72;5016519;28;20501;-74
2022/09/27 01:25:02;;;;;;;11.80;9.32;;;;;;;16.52;100.00;99521.78;5030927;28;20132;-74
2022/09/27 01:27:50;;;;;;;11.40;9.10;;;;;;;16.47;100.00;99516.66;4964006;28;20063;-76
2022/09/27 01:30:36;;;;;;;12.25;9.82;;;;;;;16.28;100.00;99465.34;5013487;28;20072;-75
2022/09/27 01:33:07;;;;;;;15.88;10.57;;;;;;;16.49;100.00;99527.19;5020210;28;20056;-74
2022/09/27 01:36:15;;;;;;;13.82;9.40;;;;;;;16.49;100.00;99527.19;5011589;28;20060;-74
2022/09/27 01:38:55;;;;;;;12.73;8.98;;;;;;;16.56;100.00;99523.38;5025336;28;20060;-74
2022/09/27 01:41:21;;;;;;;13.63;9.93;;;;;;;16.55;100.00;99508.41;5042433;28;20048;-75
2022/09/27 01:43:57;;;;;;;13.32;10.07;;;;;;;16.51;100.00;99504.16;5027411;28;20041;-74
2022/09/27 01:46:28;;;;;;;15.40;10.23;;;;;;;15.66;100.00;99361.78;5020668;28;20035;-73
2022/09/27 01:48:57;;;;;;;11.45;9.57;;;;;;;16.25;100.00;99464.53;5015054;28;20058;-76
2022/09/27 01:51:30;;;;;;;16.73;11.02;;;;;;;15.66;100.00;99359.13;5019946;28;20812;-74
2022/09/27 01:53:59;;;;;;;;;;;;;;;16.37;100.00;99488.81;5036520;28;20183;-75
2022/09/27 01:56:36;;;;;;;12.98;9.23;;;;;;;16.41;100.00;99491.28;5028910;28;19929;-74
2022/09/27 01:59:17;;;;;;;13.40;11.80;;;;;;;16.34;100.00;99457.13;5024544;28;20053;-75
2022/09/27 02:01:46;;;;;;;13.25;10.55;;;;;;;15.62;100.00;99317.88;5025893;28;20030;-76
2022/09/27 02:04:16;;;;;;;13.45;9.68;;;;;;;16.30;100.00;99432.59;5021113;28;20124;-73
2022/09/27 02:06:47;;;;;;;13.25;10.95;;;;;;;16.46;100.00;99459.31;5024414;28;20069;-74
2022/09/27 02:09:18;;;;;;;13.18;10.38;;;;;;;15.49;100.00;99306.91;5013822;28;20050;-75
2022/09/27 02:11:49;;;;;;;16.08;11.30;;;;;;;15.68;100.00;99330.84;5019069;28;20088;-74
2022/09/27 02:14:23;;;;;;;14.18;11.50;;;;;;;16.29;100.00;99446.72;5030713;28;20111;-75
2022/09/27 02:17:07;;;;;;;12.63;10.73;;;;;;;16.29;100.00;99459.09;5019983;28;20037;-74
2022/09/27 02:19:54;;;;;;;13.48;10.25;;;;;;;16.32;100.00;99438.69;5043330;28;20052;-73
2022/09/27 02:22:27;;;;;;;14.38;10.75;;;;;;;16.34;100.00;99435.97;5043230;28;20053;-75
2022/09/27 02:25:31;;;;;;;14.88;12.57;;;;;;;16.34;100.00;99439.50;5031179;28;20508;-75
2022/09/27 02:27:59;;;;;;;;;;;;;;;16.32;100.00;99437.78;5035870;28;20045;-76
2022/09/27 02:30:25;;;;;;;16.27;11.80;;;;;;;16.24;100.00;99423.06;5020026;28;19918;-74
2022/09/27 02:32:51;;;;;;;13.38;11.00;;;;;;;16.18;100.00;99412.75;5019526;28;20800;-75
2022/09/27 02:35:44;;;;;;;16.00;12.13;;;;;;;16.36;100.00;99439.41;5016183;28;20381;-73
2022/09/27 02:38:10;;;;;;;15.68;11.45;;;;;;;15.71;100.00;99311.41;5032251;28;20053;-73
2022/09/27 02:40:43;;;;;;;17.17;13.55;;;;;;;16.27;100.00;99418.59;5021738;28;20479;-74
2022/09/27 02:43:09;;;;;;;14.65;11.25;;;;;;;15.78;100.00;99356.09;5025473;28;20149;-73
2022/09/27 02:45:40;;;;;;;19.65;13.82;;;;;;;16.18;100.00;99423.34;5015692;28;20045;-74
2022/09/27 02:48:27;;;;;;;14.38;12.35;;;;;;;15.98;100.00;99373.81;5036382;28;20041;-74
2022/09/27 02:51:19;;;;;;;21.55;14.20;;;;;;;16.14;100.00;99400.56;5027181;28;20049;-73
2022/09/27 02:53:56;;;;;;;16.58;14.50;;;;;;;16.35;100.00;99450.94;5021347;28;20137;-75
2022/09/27 02:56:45;;;;;;;22.15;14.48;;;;;;;16.28;100.00;99447.66;5036375;28;20057;-73
2022/09/27 02:59:39;;;;;;;19.02;14.13;;;;;;;16.10;100.00;99422.75;5020686;28;20053;-73
2022/09/27 03:02:10;;;;;;;15.80;13.77;;;;;;;16.34;100.00;99473.03;5019218;28;20052;-73
2022/09/27 03:04:57;;;;;;;15.57;13.65;;;;;;;16.35;100.00;99459.72;5030440;28;20040;-74
2022/09/27 03:07:23;;;;;;;18.17;13.13;;;;;;;15.63;100.00;99338.09;5046413;28;20811;-75
2022/09/27 03:09:51;;;;;;;18.38;13.60;;;;;;;16.44;100.00;99458.53;5016329;28;20788;-74
2022/09/27 03:12:21;;;;;;;18.58;14.05;;;;;;;15.57;100.00;99310.13;4991699;28;20062;-74
2022/09/27 03:14:48;;;;;;;16.05;13.70;;;;;;;16.41;100.00;99456.84;5017161;28;20045;-73
2022/09/27 03:17:14;;;;;;;22.17;13.85;;;;;;;15.59;100.00;99316.22;5031047;28;20056;-74
2022/09/27 03:19:40;;;;;;;14.40;12.60;;;;;;;16.40;100.00;99455.13;5010205;28;20037;-75
2022/09/27 03:22:05;;;;;;;14.10;12.38;;;;;;;16.45;100.00;99463.72;5047871;28;20040;-73
2022/09/27 03:24:31;;;;;;;17.05;11.75;;;;;;;15.63;100.00;99315.16;5017219;28;20065;-75
2022/09/27 03:26:56;;;;;;;15.85;10.82;;;;;;;16.23;100.00;99408.13;5033433;28;20321;-75
2022/09/27 03:29:22;;;;;;;10.77;8.80;;;;;;;15.32;100.00;99281.09;5021214;28;20053;-73
2022/09/27 03:31:47;;;;;;;12.25;9.75;;;;;;;15.45;100.00;99278.84;5035977;28;20537;-73
2022/09/27 03:34:13;;;;;;;13.52;10.40;;;;;;;16.29;100.00;99416.75;5030785;28;20602;-75
2022/09/27 03:36:38;;;;;;;13.10;9.27;;;;;;;14.91;100.00;99198.09;5018753;28;20172;-75
2022/09/27 03:39:04;;;;;;;13.68;10.38;;;;;;;16.30;100.00;99416.69;5030561;28;20045;-74
2022/09/27 03:41:29;;;;;;;14.80;10.65;;;;;;;16.24;100.00;99446.91;5037404;28;20437;-74
2022/09/27 03:43:56;;;;;;;13.10;9.30;;;;;;;16.19;100.00;99413.59;5017863;28;20041;-75
2022/09/27 03:46:22;;;;;;;17.02;10.88;;;;;;;15.51;100.00;99288.34;5022872;28;20482;-73
2022/09/27 03:48:48;;;;;;;17.92;10.45;;;;;;;15.51;100.00;99291.00;5025769;28;20056;-75
2022/09/27 03:51:13;;;;;;;16.13;10.40;;;;;;;16.16;100.00;99401.34;5021259;28;20049;-75
2022/09/27 03:53:39;;;;;;;13.48;11.02;;;;;;;16.31;100.00;99431.66;5047139;28;20040;-74
2022/09/27 03:56:04;;;;;;;13.65;10.90;;;;;;;16.31;100.00;99430.78;5035297;28;20045;-73
2022/09/27 03:58:30;;;;;;;13.90;11.95;;;;;;;14.87;100.00;99192.09;5028247;28;20033;-74
2022/09/27 04:00:55;;;;;;;14.80;11.85;;;;;;;16.14;100.00;99426.16;5019611;28;20046;-74
2022/09/27 04:03:21;;;;;;;15.02;12.32;;;;;;;16.20;100.00;99410.91;5020118;28;20053;-74
2022/09/27 04:05:46;;;;;;;15.60;12.23;;;;;;;16.34;100.00;99433.31;5039964;28;20102;-75
2022/09/27 04:08:12;;;;;;;15.57;12.70;;;;;;;16.02;100.00;99379.88;5009197;28;20116;-75
2022/09/27 04:10:38;;;;;;;13.07;11.70;;;;;;;16.13;100.00;99424.41;5011361;28;20030;-75
2022/09/27 04:13:04;;;;;;;14.52;12.48;;;;;;;15.35;100.00;99286.28;5014420;28;20041;-76
2022/09/27 04:15:29;;;;;;;13.00;11.27;;;;;;;16.32;100.00;99435.16;5025716;28;20057;-73
2022/09/27 04:17:55;;;;;;;18.77;12.05;;;;;;;14.98;100.00;99208.41;5007753;28;20065;-73
2022/09/27 04:20:20;;;;;;;15.48;13.77;;;;;;;16.13;100.00;99393.53;4998241;28;20053;-74
2022/09/27 04:22:46;;;;;;;16.77;12.38;;;;;;;16.17;100.00;99423.38;5009925;28;20042;-74
2022/09/27 04:25:12;;;;;;;15.50;12.90;;;;;;;16.13;100.00;99401.50;4992743;28;20111;-74
2022/09/27 04:27:39;;;;;;;19.23;11.75;;;;;;;15.49;100.00;99290.19;4982739;28;20351;-74
2022/09/27 04:30:05;;;;;;;18.75;12.68;;;;;;;16.18;100.00;99406.59;5001058;28;20041;-74
2022/09/27 04:32:31;;;;;;;21.38;13.85;;;;;;;16.28;100.00;99418.53;4994904;28;20038;-73
2022/09/27 04:37:42;;;;;;;16.40;13.18;;;;;;;16.15;100.00;99389.03;5004883;28;20129;-74
2022/09/27 04:40:08;;;;;;;17.92;13.20;;;;;;;16.04;100.00;99356.84;4989098;28;20049;-75
2022/09/27 04:42:34;;;;;;;16.45;13.32;;;;;;;15.65;100.00;99301.03;5006845;28;20046;-75
2022/09/27 04:44:59;;;;;;;27.45;13.23;;;;;;;16.38;100.00;99421.69;5004485;28;20200;-74
2022/09/27 04:47:24;;;;;;;22.98;13.63;;;;;;;16.44;100.00;99427.59;5014291;28;20088;-73
2022/09/27 04:49:50;;;;;;;21.40;13.27;;;;;;;16.24;100.00;99425.72;5007292;28;20125;-74
2022/09/27 04:52:15;;;;;;;16.90;13.35;;;;;;;16.23;100.00;99405.47;4985887;28;20057;-74
2022/09/27 04:54:41;;;;;;;18.65;13.60;;;;;;;15.67;100.00;99310.63;5006731;28;20067;-75
2022/09/27 04:57:07;;;;;;;17.20;13.95;;;;;;;16.43;100.00;99422.34;5001225;28;20640;-75
2022/09/27 04:59:32;;;;;;;23.00;14.70;;;;;;;16.31;100.00;99396.38;5006133;28;20050;-76
2022/09/27 05:02:00;;;;;;;18.90;14.43;;;;;;;16.35;100.00;99395.34;5002177;28;20406;-75
2022/09/27 05:04:26;;;;;;;17.58;14.65;;;;;;;16.13;100.00;99364.44;4999091;28;20683;-75
2022/09/27 05:06:52;;;;;;;18.33;15.35;;;;;;;16.38;100.00;99411.09;5005196;28;20060;-76
2022/09/27 05:09:18;;;;;;;18.27;14.68;;;;;;;16.38;100.00;99406.66;5007893;28;20169;-76
2022/09/27 05:11:43;;;;;;;17.55;14.80;;;;;;;15.45;100.00;99291.22;5004272;28;20777;-74
2022/09/27 05:14:09;;;;;;;19.02;15.95;;;;;;;16.17;100.00;99387.19;5001744;28;20054;-75
2022/09/27 05:16:35;;;;;;;19.48;16.25;;;;;;;16.29;100.00;99379.69;5014017;28;20038;-77
2022/09/27 05:19:01;;;;;;;19.38;15.40;;;;;;;16.00;100.00;99328.78;5025356;28;20152;-76
2022/09/27 05:21:27;;;;;;;21.10;17.17;;;;;;;15.41;100.00;99242.91;5022011;28;20049;-74
2022/09/27 05:23:53;;;;;;;26.27;16.40;;;;;;;16.20;100.00;99363.25;5024262;28;20124;-74
2022/09/27 05:26:19;;;;;;;22.02;17.30;;;;;;;16.02;100.00;99377.22;5020375;28;20045;-75
2022/09/27 05:28:46;;;;;;;28.23;18.17;;;;;;;15.97;100.00;99376.53;5015715;28;20056;-74
2022/09/27 05:31:13;;;;;;;20.15;17.42;;;;;;;15.73;100.00;99355.41;5008199;28;20116;-75
2022/09/27 05:33:39;;;;;;;21.45;16.92;;;;;;;16.08;100.00;99386.69;5013129;28;20084;-74
2022/09/27 05:36:05;;;;;;;20.67;18.52;;;;;;;15.98;100.00;99367.66;5018867;28;20065;-75
2022/09/27 05:38:31;;;;;;;24.80;17.77;;;;;;;16.22;100.00;99387.91;5017996;28;20065;-75
2022/09/27 05:40:57;;;;;;;22.50;18.55;;;;;;;15.46;100.00;99271.81;5017425;28;20053;-74
2022/09/27 05:43:23;;;;;;;21.33;17.27;;;;;;;16.04;100.00;99357.72;5021604;28;20194;-74
2022/09/27 05:45:56;;;;;;;23.23;16.73;;;;;;;16.31;100.00;99385.78;5014144;28;20075;-73
2022/09/27 05:48:21;;;;;;;20.27;16.40;;;;;;;16.35;100.00;99379.44;5011848;28;20057;-73
2022/09/27 05:50:47;;;;;;;20.88;17.92;;;;;;;16.21;100.00;99367.63;5019951;28;20065;-75
2022/09/27 05:53:12;;;;;;;22.63;17.33;;;;;;;16.36;100.00;99384.66;5023509;28;20056;-80
2022/09/27 05:55:38;;;;;;;20.85;16.80;;;;;;;15.88;100.00;99289.59;5027447;28;20214;-79
2022/09/27 05:58:06;;;;;;;18.48;16.40;;;;;;;16.39;100.00;99379.28;5019497;28;20045;-78
2022/09/27 06:00:32;;;;;;;21.55;17.70;;;;;;;16.12;100.00;99332.72;5018727;28;20049;-75
2022/09/27 06:03:03;;;;;;;19.23;15.68;;;;;;;15.77;100.00;99268.84;5017996;28;20056;-77
2022/09/27 06:05:34;;;;;;;26.70;18.42;;;;;;;16.31;100.00;99388.44;5016670;28;20049;-78
2022/09/27 06:08:07;;;;;;;18.95;16.73;;;;;;;16.40;100.00;99380.13;5011992;28;20579;-77
2022/09/27 06:10:33;;;;;;;27.30;17.45;;;;;;;16.50;100.00;99392.06;5021566;28;20060;-77
2022/09/27 06:13:07;;;;;;;21.23;18.00;;;;;;;15.88;100.00;99271.94;5047584;28;20477;-78
2022/09/27 06:15:36;;;;;;;20.67;17.67;;;;;;;16.07;100.00;99295.00;5028024;28;20133;-77
2022/09/27 06:18:10;;;;;;;19.25;16.85;;;;;;;16.82;100.00;99403.16;4999537;28;20078;-79
2022/09/27 06:20:37;;;;;;;15.85;13.88;;;;;;;16.43;100.00;99298.75;5005376;28;20050;-67
2022/09/27 06:23:10;;;;;;;19.63;16.42;;;;;;;17.18;100.00;99403.34;4991018;28;20050;-67
2022/09/27 06:25:37;;;;;;;16.73;13.93;;;;;;;17.32;100.00;99393.94;4994155;28;20100;-67
2022/09/27 06:28:03;;;;;;;14.13;12.63;;;;;;;17.09;100.00;99264.16;4993585;28;20536;-67
2022/09/27 06:30:29;;;;;;;12.32;9.63;;;;;;;17.23;100.00;99262.63;4993787;28;20053;-67
2022/09/27 06:32:59;;;;;;;21.23;12.27;;;;;;;18.19;95.47;99293.50;4999814;28;20045;-74
2022/09/27 06:35:26;;;;;;;17.83;13.95;;;;;;;18.68;95.04;99386.69;4998682;28;20137;-70
2022/09/27 06:37:52;;;;;;;17.50;12.38;;;;;;;18.10;92.12;99270.94;4998209;28;20046;-71
2022/09/27 06:40:19;;;;;;;16.58;10.60;;;;;;;18.17;94.16;99264.41;5009859;28;20054;-69
2022/09/27 06:42:46;;;;;;;42.22;32.70;;;;;;;19.37;90.99;99399.16;4994986;28;20049;-71
2022/09/27 06:45:11;;;;;;;30.70;20.42;;;;;;;19.14;90.74;99389.72;5004040;28;20058;-70
2022/09/27 06:47:37;;;;;;;50.33;44.83;;;;;;;17.75;95.61;99267.28;4995338;28;20650;-70
2022/09/27 06:50:05;;;;;;;85.78;76.72;;;;;;;19.31;91.39;99370.22;5008271;28;20041;-74
2022/09/27 06:52:35;;;;;;;48.45;35.67;;;;;;;19.44;89.66;99387.25;5004403;28;20553;-72
2022/09/27 06:55:02;;;;;;;29.67;15.27;;;;;;;17.92;94.57;99272.69;4995830;28;20072;-70
2022/09/27 07:00:27;;;;;;;37.35;32.03;;;;;;;19.03;88.71;99248.50;5010805;28;20056;-71
2022/09/27 07:02:59;;;;;;;21.15;16.25;;;;;;;18.77;90.22;99275.50;4997567;28;20086;-72
2022/09/27 07:05:30;;;;;;;33.95;13.57;;;;;;;18.58;93.29;99383.66;4997404;28;20050;-74
2022/09/27 07:07:58;;;;;;;19.23;16.38;;;;;;;17.67;98.37;99382.59;4991563;28;20046;-73
2022/09/27 07:10:26;;;;;;;20.65;12.75;;;;;;;17.70;98.16;99349.78;5004936;28;20042;-75
2022/09/27 07:12:52;;;;;;;18.45;13.35;;;;;;;17.93;98.34;99394.72;4997149;28;20781;-75
2022/09/27 07:15:20;;;;;;;24.27;13.80;;;;;;;17.96;98.24;99388.41;5017156;28;20111;-74
2022/09/27 07:17:46;;;;;;;22.90;13.65;;;;;;;17.69;98.13;99370.13;4999653;28;20065;-73
2022/09/27 07:20:13;;;;;;;19.50;14.13;;;;;;;17.73;99.27;99377.03;5005991;28;20099;-72
2022/09/27 07:22:42;;;;;;;15.23;13.43;;;;;;;17.85;99.33;99386.25;5006740;28;20486;-75
2022/09/27 07:25:08;;;;;;;17.67;15.05;;;;;;;17.20;99.10;99274.25;5008067;28;20038;-75
2022/09/27 07:27:34;;;;;;;29.55;14.18;;;;;;;17.42;98.64;99350.16;4998993;28;20065;-74
2022/09/27 07:30:00;;;;;;;19.48;14.80;;;;;;;17.71;99.34;99392.16;5009254;28;20116;-75
2022/09/27 07:32:25;;;;;;;18.38;13.77;;;;;;;17.91;98.90;99395.69;5005067;28;20049;-77
2022/09/27 07:34:51;;;;;;;22.35;14.23;;;;;;;17.36;98.27;99322.16;4987024;28;20042;-77
2022/09/27 07:37:16;;;;;;;16.55;14.73;;;;;;;16.61;100.00;99208.88;5009936;28;20526;-79
2022/09/27 07:39:42;;;;;;;20.95;15.80;;;;;;;16.65;100.00;99219.25;5000970;28;20506;-79
2022/09/27 07:42:14;;;;;;;18.63;14.88;;;;;;;17.56;99.27;99353.06;4996401;28;20415;-79
2022/09/27 07:44:40;;;;;;;17.70;15.80;;;;;;;17.36;100.00;99335.41;4996795;28;20616;-78
2022/09/27 07:47:13;;;;;;;26.13;15.30;;;;;;;16.25;100.00;99151.31;5008833;28;20061;-79
2022/09/27 07:49:39;;;;;;;20.95;16.92;;;;;;;17.54;100.00;99338.16;4989211;28;20697;-80
2022/09/27 07:52:05;;;;;;;21.60;16.80;;;;;;;17.61;99.82;99350.22;5007503;28;20036;-81
2022/09/27 07:54:31;;;;;;;18.77;15.32;;;;;;;17.78;98.91;99389.22;4992002;28;20144;-80
2022/09/27 07:57:01;;;;;;;16.50;14.38;;;;;;;17.63;99.40;99396.06;4972518;28;20545;-81
2022/09/27 07:59:27;;;;;;;17.30;15.05;;;;;;;16.80;99.77;99224.84;4983372;28;20129;-79
2022/09/27 08:01:52;;;;;;;20.70;16.85;;;;;;;17.26;98.84;99284.59;5010682;28;20483;-77
2022/09/27 08:04:18;;;;;;;22.95;17.13;;;;;;;17.67;99.75;99369.34;5005225;28;20034;-79
2022/09/27 08:06:43;;;;;;;33.22;18.40;;;;;;;17.68;100.00;99378.19;5017135;28;20383;-79
2022/09/27 08:09:09;;;;;;;21.70;15.90;;;;;;;16.76;100.00;99236.47;4998057;28;20054;-79
2022/09/27 08:11:36;;;;;;;19.45;16.35;;;;;;;17.65;100.00;99357.97;5010300;28;20130;-80
2022/09/27 08:14:03;;;;;;;25.50;16.75;;;;;;;17.95;99.00;99380.50;4997434;28;20092;-80
2022/09/27 08:16:29;;;;;;;21.00;17.13;;;;;;;17.37;98.95;99291.19;4999106;28;20041;-80
2022/09/27 08:18:57;;;;;;;19.83;16.50;;;;;;;17.81;99.21;99384.66;5020923;28;20056;-80
2022/09/27 08:21:23;;;;;;;18.88;16.88;;;;;;;17.81;98.32;99351.97;5030323;28;20138;-80
2022/09/27 08:23:51;;;;;;;22.58;16.02;;;;;;;17.46;97.90;99278.34;5031760;28;20049;-80
2022/09/27 08:26:16;;;;;;;26.33;15.52;;;;;;;18.06;97.69;99381.72;5033532;28;20109;-78
2022/09/27 08:28:42;;;;;;;19.83;15.20;;;;;;;18.12;97.05;99378.78;5011961;28;20513;-80
2022/09/27 08:31:07;;;;;;;22.88;14.82;;;;;;;18.04;96.57;99385.38;5029699;28;20034;-80
2022/09/27 08:33:33;;;;;;;25.98;15.57;;;;;;;17.46;96.95;99277.50;5012238;28;20575;-78
2022/09/27 08:36:00;;;;;;;20.20;14.70;;;;;;;18.26;96.29;99372.81;5035557;28;20469;-79
2022/09/27 08:38:26;;;;;;;21.13;14.57;;;;;;;17.87;95.68;99283.53;5011695;28;20440;-80
2022/09/27 08:40:57;;;;;;;17.88;14.43;;;;;;;18.68;95.00;99403.53;5010272;28;20033;-78
2022/09/27 08:43:26;;;;;;;21.23;15.77;;;;;;;18.72;95.08;99391.78;5039830;28;20037;-79
2022/09/27 08:46:10;;;;;;;19.48;13.93;;;;;;;18.62;94.72;99387.03;5014241;28;20049;-78
2022/09/27 08:48:38;;;;;;;17.90;12.82;;;;;;;17.93;95.29;99275.28;5010854;28;20402;-79
2022/09/27 08:51:09;;;;;;;19.25;14.68;;;;;;;18.41;94.40;99363.22;5013684;28;20076;-78
2022/09/27 08:53:45;;;;;;;20.05;14.02;;;;;;;17.92;94.09;99278.00;5032201;28;20501;-79
2022/09/27 08:56:14;;;;;;;20.63;14.82;;;;;;;18.39;96.03;99383.69;5016608;28;20041;-80
2022/09/27 08:58:56;;;;;;;19.48;14.45;;;;;;;18.32;95.22;99395.56;5003378;28;20040;-79
2022/09/27 09:01:22;;;;;;;17.23;15.30;;;;;;;17.89;94.87;99289.63;5018491;28;20493;-77
2022/09/27 09:03:57;;;;;;;17.77;14.18;;;;;;;18.26;94.12;99340.94;5026544;28;20051;-80
2022/09/27 09:06:31;;;;;;;14.35;12.70;;;;;;;18.47;94.38;99392.16;5020394;28;20049;-81
2022/09/27 09:09:15;;;;;;;13.90;11.88;;;;;;;18.43;94.23;99387.06;5035144;28;20072;-80
2022/09/27 09:15:13;;;;;;;16.83;12.57;;;;;;;18.52;94.38;99366.22;5030471;28;20076;-79
2022/09/27 09:18:20;;;;;;;16.48;14.52;;;;;;;18.51;94.60;99379.56;5020619;28;20077;-78
2022/09/27 09:21:08;;;;;;;15.40;12.85;;;;;;;18.63;93.89;99378.97;4966440;28;20050;-79
2022/09/27 09:23:49;;;;;;;18.92;14.65;;;;;;;18.36;94.06;99375.88;5002063;28;20069;-80
2022/09/27 09:26:41;;;;;;;16.35;12.02;;;;;;;18.35;94.26;99367.06;5001280;28;20046;-81
2022/09/27 09:29:06;;;;;;;14.32;12.80;;;;;;;18.63;93.96;99363.00;5009800;28;20061;-80
2022/09/27 09:31:57;;;;;;;14.48;12.98;;;;;;;18.56;94.24;99357.13;5025635;28;20061;-78
2022/09/27 09:34:36;;;;;;;20.42;12.93;;;;;;;18.53;93.48;99324.56;4993970;28;20042;-77
2022/09/27 09:37:20;;;;;;;16.35;13.52;;;;;;;17.40;93.08;99137.25;4996347;28;20117;-78
2022/09/27 09:39:53;;;;;;;19.48;14.20;;;;;;;17.99;94.25;99226.34;5002506;28;20061;-77
2022/09/27 09:42:18;;;;;;;11.38;9.75;;;;;;;18.65;92.72;99349.66;5001461;28;20042;-78
2022/09/27 09:44:54;;;;;;;12.23;10.75;;;;;;;18.67;92.03;99335.34;5001991;28;20057;-77
2022/09/27 09:47:36;;;;;;;16.45;11.35;;;;;;;18.55;91.59;99325.34;5004994;28;20065;-78
2022/09/27 09:50:14;;;;;;;13.97;11.37;;;;;;;18.54;91.91;99307.69;5009579;28;20042;-78
2022/09/27 09:52:53;;;;;;;12.38;10.43;;;;;;;18.75;91.48;99327.88;4992534;28;20046;-85
2022/09/27 09:55:27;;;;;;;16.15;11.20;;;;;;;18.61;91.75;99306.44;4994655;28;20040;-80
2022/09/27 09:58:42;;;;;;;16.58;11.10;;;;;;;18.31;91.52;99245.97;5005932;28;20049;-81
2022/09/27 10:01:25;;;;;;;13.75;11.18;;;;;;;18.79;91.12;99330.41;4979035;28;20050;-80
2022/09/27 10:03:50;;;;;;;15.55;10.13;;;;;;;18.94;90.12;99345.53;5008359;28;20078;-76
2022/09/27 10:06:18;;;;;;;12.88;11.20;;;;;;;18.84;88.93;99307.94;5031502;28;20695;-78
2022/09/27 10:08:43;;;;;;;12.30;9.30;;;;;;;18.28;88.97;99222.19;4994182;28;20045;-80
2022/09/27 10:11:19;;;;;;;15.75;11.00;;;;;;;18.27;87.88;99199.25;4998657;28;20073;-79
2022/09/27 10:13:45;;;;;;;13.10;11.10;;;;;;;18.48;87.99;99212.38;4984976;28;20084;-80
2022/09/27 10:16:14;;;;;;;24.98;10.73;;;;;;;19.09;88.09;99319.97;5001658;28;20030;-75
2022/09/27 10:18:41;;;;;;;12.40;9.85;;;;;;;18.43;88.23;99203.78;4995557;28;20065;-78
2022/09/27 10:21:14;;;;;;;11.30;10.13;;;;;;;19.07;87.96;99320.03;5010648;28;20131;-79
2022/09/27 10:24:13;;;;;;;16.20;9.80;;;;;;;19.12;88.36;99317.13;5022654;28;20049;-80
2022/09/27 10:26:42;;;;;;;13.98;10.40;;;;;;;18.46;87.55;99231.03;5002437;28;20057;-80
2022/09/27 10:29:17;;;;;;;11.77;9.63;;;;;;;19.08;87.71;99311.13;5033933;28;20038;-82
2022/09/27 10:31:46;;;;;;;13.35;10.60;;;;;;;18.80;88.73;99281.59;5019852;28;20035;-81
2022/09/27 10:34:30;;;;;;;13.13;11.52;;;;;;;19.11;88.21;99313.63;5024025;28;20098;-79
2022/09/27 10:37:10;;;;;;;12.38;10.43;;;;;;;19.00;87.87;99285.88;5033380;28;20065;-77
2022/09/27 10:39:37;;;;;;;13.20;9.60;;;;;;;19.07;87.36;99289.94;5027792;28;20060;-78
2022/09/27 10:42:31;;;;;;;13.23;9.20;;;;;;;18.43;86.07;99183.41;5012974;28;20387;-81
2022/09/27 10:45:18;;;;;;;11.35;10.15;;;;;;;18.85;85.94;99242.38;5037611;28;20048;-80
2022/09/27 10:47:43;;;;;;;15.18;9.73;;;;;;;18.56;85.63;99204.84;5036183;28;20055;-80
2022/09/27 10:50:16;;;;;;;18.90;8.70;;;;;;;18.15;85.20;99114.94;5040218;28;20041;-80
2022/09/27 10:52:43;;;;;;;11.05;8.60;;;;;;;18.97;85.40;99261.19;5044406;28;20039;-80
2022/09/27 10:55:24;;;;;;;10.48;8.82;;;;;;;19.18;84.97;99275.13;5019985;28;20143;-79
2022/09/27 10:57:53;;;;;;;10.75;8.77;;;;;;;18.70;84.32;99173.09;5015715;28;20099;-81
2022/09/27 11:00:24;;;;;;;14.10;9.50;;;;;;;19.31;82.89;99258.50;5007318;28;20045;-81
2022/09/27 11:02:56;;;;;;;11.98;9.25;;;;;;;18.68;82.08;99169.69;5028585;28;20060;-80
2022/09/27 11:05:22;;;;;;;10.88;7.97;;;;;;;19.43;81.50;99292.41;5040269;28;20041;-81
2022/09/27 11:07:51;;;;;;;16.20;9.73;;;;;;;19.57;83.28;99299.63;5034955;28;20049;-80
2022/09/27 11:10:30;;;;;;;8.90;7.70;;;;;;;19.75;80.85;99292.47;5008933;28;20383;-80
2022/09/27 11:13:23;;;;;;;10.73;8.60;;;;;;;19.75;81.97;99296.00;5028659;28;20052;-79
2022/09/27 11:16:17;;;;;;;10.82;8.05;;;;;;;19.78;81.59;99300.28;5034165;28;20077;-78
2022/09/27 11:18:43;;;;;;;;;;;;;;;19.89;82.07;99287.22;5035342;28;20065;-79
2022/09/27 11:21:48;;;;;;;11.35;8.43;;;;;;;20.00;83.38;99271.50;5012806;28;20397;-80
2022/09/27 11:24:35;;;;;;;13.32;8.40;;;;;;;20.14;82.74;99267.22;4992805;28;20089;-79
2022/09/27 11:27:09;;;;;;;12.20;8.88;;;;;;;20.18;81.65;99279.38;5025413;28;20047;-82
2022/09/27 11:30:00;;;;;;;14.30;6.93;;;;;;;20.14;80.09;99246.75;5006338;28;20053;-79
2022/09/27 11:32:55;;;;;;;9.07;8.07;;;;;;;19.87;80.56;99224.38;5024370;28;20079;-76
2022/09/27 11:35:41;;;;;;;12.02;7.30;;;;;;;20.11;80.17;99262.91;5018240;28;20060;-79
2022/09/27 11:38:16;;;;;;;10.77;7.30;;;;;;;20.07;79.62;99274.69;5019324;28;21006;-79
2022/09/27 11:40:53;;;;;;;10.68;6.90;;;;;;;19.54;80.03;99162.28;5019603;28;20067;-79
2022/09/27 11:43:56;;;;;;;12.35;8.02;;;;;;;19.58;81.04;99170.97;5025265;28;20039;-78